createdAt,value
2017-10-19T00:00:35.368Z,1004.44
2017-10-19T00:01:35.333Z,1004.49
2017-10-19T00:02:35.297Z,1004.50
2017-10-19T00:03:35.264Z,1004.45
2017-10-19T00:04:35.229Z,1004.51
2017-10-19T00:05:35.215Z,1004.44
2017-10-19T00:06:35.162Z,1004.40
2017-10-19T00:07:35.126Z,1004.40
2017-10-19T00:08:35.097Z,1004.38
2017-10-19T00:09:35.058Z,1004.37
2017-10-19T00:10:35.028Z,1004.40
2017-10-19T00:11:34.989Z,1004.33
2017-10-19T00:12:34.955Z,1004.38
2017-10-19T00:13:34.920Z,1004.38
2017-10-19T00:14:34.888Z,1004.37
2017-10-19T00:15:34.854Z,1004.30
2017-10-19T00:16:34.817Z,1004.38
2017-10-19T00:17:34.784Z,1004.37
2017-10-19T00:18:34.748Z,1004.32
2017-10-19T00:19:34.721Z,1004.31
2017-10-19T00:20:34.681Z,1004.41
2017-10-19T00:21:34.647Z,1004.36
2017-10-19T00:22:34.613Z,1004.37
2017-10-19T00:23:34.577Z,1004.30
2017-10-19T00:24:34.542Z,1004.35
2017-10-19T00:25:34.509Z,1004.29
2017-10-19T00:26:34.481Z,1004.34
2017-10-19T00:27:34.440Z,1004.36
2017-10-19T00:28:34.406Z,1004.36
2017-10-19T00:29:34.372Z,1004.34
2017-10-19T00:30:34.338Z,1004.27
2017-10-19T00:31:34.303Z,1004.34
2017-10-19T00:32:34.269Z,1004.27
2017-10-19T00:33:34.236Z,1004.30
2017-10-19T00:34:34.199Z,1004.31
2017-10-19T00:35:34.166Z,1004.34
2017-10-19T00:36:34.130Z,1004.31
2017-10-19T00:37:34.099Z,1004.37
2017-10-19T00:38:34.062Z,1004.35
2017-10-19T00:39:34.028Z,1004.39
2017-10-19T00:40:33.992Z,1004.43
2017-10-19T00:41:33.959Z,1004.38
2017-10-19T00:42:33.924Z,1004.39
2017-10-19T00:43:33.891Z,1004.39
2017-10-19T00:44:33.856Z,1004.37
2017-10-19T00:45:33.819Z,1004.35
2017-10-19T00:46:33.787Z,1004.35
2017-10-19T00:47:34.007Z,1004.30
2017-10-19T00:48:33.718Z,1004.34
2017-10-19T00:49:33.684Z,1004.26
2017-10-19T00:50:33.650Z,1004.25
2017-10-19T00:51:33.616Z,1004.20
2017-10-19T00:52:33.580Z,1004.32
2017-10-19T00:53:33.547Z,1004.24
2017-10-19T00:54:33.512Z,1004.28
2017-10-19T00:55:33.478Z,1004.36
2017-10-19T00:56:33.443Z,1004.27
2017-10-19T00:57:33.409Z,1004.23
2017-10-19T00:58:33.376Z,1004.21
2017-10-19T00:59:33.341Z,1004.29
2017-10-19T01:00:33.306Z,1004.16
2017-10-19T01:01:33.277Z,1004.26
2017-10-19T01:02:33.244Z,1004.25
2017-10-19T01:03:33.204Z,1004.21
2017-10-19T01:04:33.169Z,1004.22
2017-10-19T01:05:33.133Z,1004.24
2017-10-19T01:06:33.100Z,1004.12
2017-10-19T01:07:33.066Z,1004.12
2017-10-19T01:08:33.032Z,1004.21
2017-10-19T01:09:32.998Z,1004.21
2017-10-19T01:10:32.962Z,1004.14
2017-10-19T01:11:32.929Z,1004.20
2017-10-19T01:12:32.895Z,1004.18
2017-10-19T01:13:32.859Z,1004.22
2017-10-19T01:14:32.831Z,1004.22
2017-10-19T01:15:32.792Z,1004.23
2017-10-19T01:16:32.758Z,1004.21
2017-10-19T01:17:32.722Z,1004.28
2017-10-19T01:18:32.699Z,1004.29
2017-10-19T01:19:32.659Z,1004.27
2017-10-19T01:20:32.620Z,1004.29
2017-10-19T01:21:32.586Z,1004.14
2017-10-19T01:22:32.552Z,1004.27
2017-10-19T01:23:32.517Z,1004.29
2017-10-19T01:24:32.482Z,1004.16
2017-10-19T01:25:32.449Z,1004.24
2017-10-19T01:26:33.235Z,1004.21
2017-10-19T01:27:32.380Z,1004.21
2017-10-19T01:28:32.346Z,1004.26
2017-10-19T01:29:32.311Z,1004.21
2017-10-19T01:30:32.277Z,1004.18
2017-10-19T01:31:32.243Z,1004.16
2017-10-19T01:32:32.241Z,1004.14
2017-10-19T01:33:32.176Z,1004.17
2017-10-19T01:34:32.142Z,1004.17
2017-10-19T01:35:32.109Z,1004.17
2017-10-19T01:36:32.072Z,1004.16
2017-10-19T01:37:32.045Z,1004.18
2017-10-19T01:38:32.003Z,1004.12
2017-10-19T01:39:32.538Z,1004.18
2017-10-19T01:40:31.936Z,1004.13
2017-10-19T01:41:31.905Z,1004.17
2017-10-19T01:42:31.867Z,1004.19
2017-10-19T01:43:31.832Z,1004.14
2017-10-19T01:44:31.798Z,1004.14
2017-10-19T01:45:31.764Z,1004.10
2017-10-19T01:46:31.728Z,1004.14
2017-10-19T01:47:31.695Z,1004.12
2017-10-19T01:48:31.659Z,1004.07
2017-10-19T01:49:31.622Z,1004.14
2017-10-19T01:50:31.590Z,1004.07
2017-10-19T01:51:31.558Z,1004.13
2017-10-19T01:52:31.523Z,1004.15
2017-10-19T01:53:31.488Z,1004.12
2017-10-19T01:54:32.070Z,1004.10
2017-10-19T01:55:31.418Z,1004.14
2017-10-19T01:56:31.382Z,1004.13
2017-10-19T01:57:31.349Z,1004.13
2017-10-19T01:58:31.315Z,1004.12
2017-10-19T01:59:31.278Z,1004.12
2017-10-19T02:00:31.243Z,1004.12
2017-10-19T02:01:31.210Z,1004.11
2017-10-19T02:02:31.174Z,1004.09
2017-10-19T02:03:31.140Z,1004.07
2017-10-19T02:04:31.102Z,1004.04
2017-10-19T02:05:31.068Z,1003.99
2017-10-19T02:06:31.034Z,1004.03
2017-10-19T02:07:31.000Z,1004.02
2017-10-19T02:08:30.964Z,1003.99
2017-10-19T02:09:30.928Z,1004.03
2017-10-19T02:10:30.893Z,1003.96
2017-10-19T02:11:30.858Z,1004.01
2017-10-19T02:12:30.825Z,1004.02
2017-10-19T02:13:30.789Z,1004.01
2017-10-19T02:14:30.753Z,1003.98
2017-10-19T02:15:30.720Z,1004.00
2017-10-19T02:16:30.683Z,1003.95
2017-10-19T02:17:30.646Z,1004.05
2017-10-19T02:18:30.612Z,1003.84
2017-10-19T02:19:30.578Z,1004.03
2017-10-19T02:20:30.542Z,1003.96
2017-10-19T02:21:30.506Z,1003.99
2017-10-19T02:22:30.473Z,1003.91
2017-10-19T02:23:30.438Z,1004.03
2017-10-19T02:24:30.406Z,1004.00
2017-10-19T02:25:30.366Z,1003.99
2017-10-19T02:26:30.332Z,1004.03
2017-10-19T02:27:30.296Z,1003.98
2017-10-19T02:28:30.260Z,1004.00
2017-10-19T02:29:30.226Z,1003.97
2017-10-19T02:30:30.191Z,1003.97
2017-10-19T02:31:30.153Z,1004.03
2017-10-19T02:32:30.119Z,1004.02
2017-10-19T02:33:30.083Z,1003.97
2017-10-19T02:34:30.049Z,1003.97
2017-10-19T02:35:30.013Z,1003.96
2017-10-19T02:36:29.978Z,1003.97
2017-10-19T02:37:29.943Z,1003.95
2017-10-19T02:38:29.909Z,1003.99
2017-10-19T02:39:29.873Z,1003.99
2017-10-19T02:40:29.840Z,1003.99
2017-10-19T02:41:29.802Z,1003.93
2017-10-19T02:42:29.767Z,1003.90
2017-10-19T02:43:29.732Z,1003.97
2017-10-19T02:44:29.696Z,1003.99
2017-10-19T02:45:29.660Z,1004.02
2017-10-19T02:46:29.624Z,1003.98
2017-10-19T02:47:29.590Z,1004.05
2017-10-19T02:48:29.554Z,1004.03
2017-10-19T02:49:29.521Z,1004.04
2017-10-19T02:50:29.485Z,1004.07
2017-10-19T02:51:29.449Z,1003.95
2017-10-19T02:52:29.408Z,1004.08
2017-10-19T02:53:29.377Z,1003.98
2017-10-19T02:54:29.342Z,1003.96
2017-10-19T02:55:29.311Z,1003.97
2017-10-19T02:56:29.272Z,1004.03
2017-10-19T02:57:29.235Z,1003.96
2017-10-19T02:58:29.200Z,1004.02
2017-10-19T02:59:29.158Z,1003.98
2017-10-19T03:00:29.129Z,1004.03
2017-10-19T03:01:29.094Z,1004.04
2017-10-19T03:02:29.061Z,1004.08
2017-10-19T03:03:29.025Z,1003.98
2017-10-19T03:04:29.206Z,1003.99
2017-10-19T03:05:28.952Z,1004.02
2017-10-19T03:06:28.917Z,1003.94
2017-10-19T03:07:28.883Z,1003.94
2017-10-19T03:08:28.858Z,1003.95
2017-10-19T03:09:28.812Z,1003.91
2017-10-19T03:11:00.480Z,1003.95
2017-10-19T03:11:28.741Z,1003.95
2017-10-19T03:12:28.704Z,1003.99
2017-10-19T03:13:28.669Z,1003.98
2017-10-19T03:14:28.635Z,1003.98
2017-10-19T03:15:28.599Z,1003.87
2017-10-19T03:16:28.563Z,1003.96
2017-10-19T03:17:28.528Z,1003.95
2017-10-19T03:18:28.493Z,1003.91
2017-10-19T03:19:28.457Z,1003.94
2017-10-19T03:20:28.419Z,1003.93
2017-10-19T03:21:28.384Z,1003.90
2017-10-19T03:22:28.350Z,1003.76
2017-10-19T03:23:28.315Z,1003.88
2017-10-19T03:24:28.279Z,1003.88
2017-10-19T03:25:28.244Z,1003.91
2017-10-19T03:26:28.209Z,1003.88
2017-10-19T03:27:28.178Z,1003.87
2017-10-19T03:28:28.139Z,1003.88
2017-10-19T03:29:28.103Z,1003.89
2017-10-19T03:30:28.070Z,1003.88
2017-10-19T03:31:28.033Z,1003.78
2017-10-19T03:32:27.996Z,1003.84
2017-10-19T03:33:27.960Z,1003.79
2017-10-19T03:34:28.101Z,1003.86
2017-10-19T03:35:27.889Z,1003.80
2017-10-19T03:36:27.855Z,1003.74
2017-10-19T03:37:27.818Z,1003.80
2017-10-19T03:38:27.783Z,1003.78
2017-10-19T03:39:28.107Z,1003.76
2017-10-19T03:40:27.711Z,1003.81
2017-10-19T03:41:27.677Z,1003.84
2017-10-19T03:42:27.648Z,1003.82
2017-10-19T03:43:27.607Z,1003.80
2017-10-19T03:44:27.570Z,1003.79
2017-10-19T03:45:27.534Z,1003.81
2017-10-19T03:46:27.510Z,1003.76
2017-10-19T03:47:27.463Z,1003.78
2017-10-19T03:48:27.428Z,1003.77
2017-10-19T03:49:27.392Z,1003.74
2017-10-19T03:50:27.357Z,1003.78
2017-10-19T03:51:27.324Z,1003.64
2017-10-19T03:52:27.286Z,1003.71
2017-10-19T03:53:27.250Z,1003.68
2017-10-19T03:54:27.214Z,1003.65
2017-10-19T03:55:27.180Z,1003.66
2017-10-19T03:56:27.712Z,1003.68
2017-10-19T03:57:27.106Z,1003.69
2017-10-19T03:58:27.072Z,1003.63
2017-10-19T03:59:27.038Z,1003.60
2017-10-19T04:00:26.999Z,1003.60
2017-10-19T04:01:26.965Z,1003.58
2017-10-19T04:02:26.931Z,1003.57
2017-10-19T04:03:26.894Z,1003.56
2017-10-19T04:04:26.857Z,1003.55
2017-10-19T04:05:26.823Z,1003.56
2017-10-19T04:06:26.786Z,1003.42
2017-10-19T04:07:26.752Z,1003.54
2017-10-19T04:08:26.715Z,1003.55
2017-10-19T04:09:26.682Z,1003.56
2017-10-19T04:10:26.645Z,1003.62
2017-10-19T04:11:27.016Z,1003.63
2017-10-19T04:12:26.571Z,1003.61
2017-10-19T04:13:26.534Z,1003.60
2017-10-19T04:14:26.500Z,1003.61
2017-10-19T04:15:26.463Z,1003.60
2017-10-19T04:16:26.426Z,1003.61
2017-10-19T04:17:26.392Z,1003.63
2017-10-19T04:18:26.357Z,1003.57
2017-10-19T04:19:26.321Z,1003.65
2017-10-19T04:20:26.284Z,1003.63
2017-10-19T04:21:26.248Z,1003.62
2017-10-19T04:22:26.212Z,1003.63
2017-10-19T04:23:26.176Z,1003.56
2017-10-19T04:24:26.139Z,1003.56
2017-10-19T04:25:26.130Z,1003.56
2017-10-19T04:26:26.069Z,1003.57
2017-10-19T04:27:26.033Z,1003.55
2017-10-19T04:28:25.996Z,1003.57
2017-10-19T04:29:25.958Z,1003.59
2017-10-19T04:30:25.922Z,1003.59
2017-10-19T04:31:25.897Z,1003.56
2017-10-19T04:32:25.851Z,1003.62
2017-10-19T04:33:25.815Z,1003.59
2017-10-19T04:34:25.781Z,1003.56
2017-10-19T04:35:25.744Z,1003.62
2017-10-19T04:36:25.712Z,1003.58
2017-10-19T04:37:25.671Z,1003.56
2017-10-19T04:38:25.636Z,1003.55
2017-10-19T04:39:25.599Z,1003.57
2017-10-19T04:40:25.564Z,1003.61
2017-10-19T04:41:25.527Z,1003.63
2017-10-19T04:42:25.492Z,1003.65
2017-10-19T04:43:25.457Z,1003.64
2017-10-19T04:44:25.418Z,1003.59
2017-10-19T04:45:25.385Z,1003.63
2017-10-19T04:46:25.348Z,1003.61
2017-10-19T04:47:25.311Z,1003.61
2017-10-19T04:48:25.275Z,1003.61
2017-10-19T04:49:25.250Z,1003.57
2017-10-19T04:50:25.205Z,1003.62
2017-10-19T04:51:25.168Z,1003.60
2017-10-19T04:52:25.133Z,1003.62
2017-10-19T04:53:25.097Z,1003.60
2017-10-19T04:54:25.061Z,1003.61
2017-10-19T04:55:25.025Z,1003.56
2017-10-19T04:56:24.986Z,1003.58
2017-10-19T04:57:24.957Z,1003.57
2017-10-19T04:58:24.918Z,1003.58
2017-10-19T04:59:24.881Z,1003.57
2017-10-19T05:00:24.844Z,1003.55
2017-10-19T05:01:24.808Z,1003.56
2017-10-19T05:02:24.772Z,1003.58
2017-10-19T05:03:24.733Z,1003.55
2017-10-19T05:04:24.700Z,1003.51
2017-10-19T05:05:24.667Z,1003.47
2017-10-19T05:06:24.629Z,1003.42
2017-10-19T05:07:24.593Z,1003.46
2017-10-19T05:08:24.555Z,1003.50
2017-10-19T05:09:24.520Z,1003.48
2017-10-19T05:10:24.490Z,1003.44
2017-10-19T05:11:24.449Z,1003.47
2017-10-19T05:12:24.413Z,1003.46
2017-10-19T05:13:24.377Z,1003.48
2017-10-19T05:14:24.341Z,1003.47
2017-10-19T05:15:24.345Z,1003.43
2017-10-19T05:16:24.269Z,1003.42
2017-10-19T05:17:24.232Z,1003.43
2017-10-19T05:18:24.221Z,1003.34
2017-10-19T05:19:24.161Z,1003.42
2017-10-19T05:20:24.125Z,1003.41
2017-10-19T05:21:24.095Z,1003.39
2017-10-19T05:22:24.052Z,1003.40
2017-10-19T05:23:24.018Z,1003.41
2017-10-19T05:24:23.981Z,1003.39
2017-10-19T05:25:23.943Z,1003.40
2017-10-19T05:26:23.909Z,1003.21
2017-10-19T05:27:23.873Z,1003.33
2017-10-19T05:28:23.837Z,1003.32
2017-10-19T05:29:23.799Z,1003.27
2017-10-19T05:30:23.763Z,1003.33
2017-10-19T05:31:23.731Z,1003.31
2017-10-19T05:32:23.690Z,1003.34
2017-10-19T05:33:23.655Z,1003.37
2017-10-19T05:34:23.620Z,1003.43
2017-10-19T05:35:23.584Z,1003.42
2017-10-19T05:36:23.546Z,1003.45
2017-10-19T05:37:23.512Z,1003.46
2017-10-19T05:38:23.475Z,1003.40
2017-10-19T05:39:23.433Z,1003.44
2017-10-19T05:40:23.402Z,1003.46
2017-10-19T05:41:23.366Z,1003.45
2017-10-19T05:42:23.331Z,1003.45
2017-10-19T05:43:23.295Z,1003.45
2017-10-19T05:44:23.256Z,1003.44
2017-10-19T05:45:23.226Z,1003.45
2017-10-19T05:46:23.186Z,1003.42
2017-10-19T05:47:23.149Z,1003.45
2017-10-19T05:48:23.113Z,1003.40
2017-10-19T05:49:23.079Z,1003.44
2017-10-19T05:50:23.040Z,1003.35
2017-10-19T05:51:23.005Z,1003.45
2017-10-19T05:52:22.967Z,1003.46
2017-10-19T05:53:22.932Z,1003.48
2017-10-19T05:54:22.895Z,1003.45
2017-10-19T05:55:22.859Z,1003.38
2017-10-19T05:56:22.823Z,1003.37
2017-10-19T05:57:22.790Z,1003.43
2017-10-19T05:58:22.751Z,1003.40
2017-10-19T05:59:22.716Z,1003.45
2017-10-19T06:00:22.679Z,1003.41
2017-10-19T06:01:22.644Z,1003.39
2017-10-19T06:02:22.604Z,1003.40
2017-10-19T06:03:22.570Z,1003.42
2017-10-19T06:04:22.533Z,1003.44
2017-10-19T06:05:22.496Z,1003.35
2017-10-19T06:06:22.469Z,1003.35
2017-10-19T06:07:22.424Z,1003.33
2017-10-19T06:08:22.388Z,1003.36
2017-10-19T06:09:22.352Z,1003.35
2017-10-19T06:10:22.322Z,1003.33
2017-10-19T06:11:22.282Z,1003.37
2017-10-19T06:12:22.244Z,1003.33
2017-10-19T06:13:22.207Z,1003.40
2017-10-19T06:14:22.172Z,1003.42
2017-10-19T06:15:22.138Z,1003.44
2017-10-19T06:16:22.097Z,1003.40
2017-10-19T06:17:22.063Z,1003.36
2017-10-19T06:18:22.028Z,1003.48
2017-10-19T06:19:21.990Z,1003.44
2017-10-19T06:20:21.954Z,1003.46
2017-10-19T06:21:21.918Z,1003.46
2017-10-19T06:22:21.997Z,1003.50
2017-10-19T06:23:21.849Z,1003.52
2017-10-19T06:24:22.140Z,1003.49
2017-10-19T06:25:21.773Z,1003.47
2017-10-19T06:26:21.738Z,1003.54
2017-10-19T06:27:21.705Z,1003.50
2017-10-19T06:28:21.665Z,1003.53
2017-10-19T06:29:21.630Z,1003.45
2017-10-19T06:30:21.594Z,1003.46
2017-10-19T06:31:21.561Z,1003.38
2017-10-19T06:32:21.521Z,1003.46
2017-10-19T06:33:21.487Z,1003.37
2017-10-19T06:34:21.453Z,1003.39
2017-10-19T06:35:21.414Z,1003.36
2017-10-19T06:36:21.381Z,1003.40
2017-10-19T06:37:21.357Z,1003.40
2017-10-19T06:38:21.311Z,1003.49
2017-10-19T06:39:21.275Z,1003.45
2017-10-19T06:40:21.239Z,1003.49
2017-10-19T06:41:21.206Z,1003.49
2017-10-19T06:42:21.171Z,1003.53
2017-10-19T06:43:21.136Z,1003.51
2017-10-19T06:44:21.100Z,1003.52
2017-10-19T06:45:21.067Z,1003.54
2017-10-19T06:46:21.031Z,1003.52
2017-10-19T06:47:20.997Z,1003.54
2017-10-19T06:48:20.961Z,1003.54
2017-10-19T06:49:20.928Z,1003.55
2017-10-19T06:50:20.894Z,1003.55
2017-10-19T06:51:20.864Z,1003.61
2017-10-19T06:52:20.825Z,1003.64
2017-10-19T06:53:20.789Z,1003.67
2017-10-19T06:54:20.756Z,1003.72
2017-10-19T06:55:20.723Z,1003.67
2017-10-19T06:56:20.689Z,1003.76
2017-10-19T06:57:20.654Z,1003.81
2017-10-19T06:58:20.621Z,1003.82
2017-10-19T06:59:20.589Z,1003.79
2017-10-19T07:00:20.552Z,1003.78
2017-10-19T07:01:20.520Z,1003.82
2017-10-19T07:02:20.486Z,1003.64
2017-10-19T07:03:20.453Z,1003.73
2017-10-19T07:04:20.419Z,1003.75
2017-10-19T07:05:20.387Z,1003.72
2017-10-19T07:06:20.356Z,1003.77
2017-10-19T07:07:20.323Z,1003.73
2017-10-19T07:08:20.289Z,1003.69
2017-10-19T07:09:20.264Z,1003.78
2017-10-19T07:10:20.225Z,1003.71
2017-10-19T07:11:20.194Z,1003.71
2017-10-19T07:12:20.160Z,1003.71
2017-10-19T07:13:20.128Z,1003.77
2017-10-19T07:14:20.098Z,1003.72
2017-10-19T07:15:20.065Z,1003.77
2017-10-19T07:16:20.034Z,1003.78
2017-10-19T07:17:20.003Z,1003.76
2017-10-19T07:18:19.974Z,1003.79
2017-10-19T07:19:19.941Z,1003.71
2017-10-19T07:20:19.909Z,1003.74
2017-10-19T07:21:19.877Z,1003.78
2017-10-19T07:22:19.850Z,1003.81
2017-10-19T07:23:19.816Z,1003.81
2017-10-19T07:24:19.787Z,1003.85
2017-10-19T07:25:19.756Z,1003.84
2017-10-19T07:26:19.726Z,1003.85
2017-10-19T07:27:19.698Z,1003.81
2017-10-19T07:28:19.848Z,1003.81
2017-10-19T07:29:19.635Z,1003.72
2017-10-19T07:30:19.606Z,1003.79
2017-10-19T07:31:19.576Z,1003.72
2017-10-19T07:32:19.548Z,1003.76
2017-10-19T07:33:19.517Z,1003.76
2017-10-19T07:34:19.488Z,1003.76
2017-10-19T07:35:19.458Z,1003.82
2017-10-19T07:36:19.429Z,1003.77
2017-10-19T07:37:19.400Z,1003.84
2017-10-19T07:38:19.371Z,1003.83
2017-10-19T07:39:19.343Z,1003.91
2017-10-19T07:40:19.314Z,1003.90
2017-10-19T07:41:19.286Z,1003.92
2017-10-19T07:42:19.256Z,1003.95
2017-10-19T07:43:19.237Z,1003.92
2017-10-19T07:44:19.199Z,1003.90
2017-10-19T07:45:19.176Z,1003.95
2017-10-19T07:46:19.146Z,1003.91
2017-10-19T07:47:19.116Z,1003.90
2017-10-19T07:48:19.087Z,1003.83
2017-10-19T07:49:19.061Z,1003.90
2017-10-19T07:50:19.033Z,1003.89
2017-10-19T07:51:19.007Z,1003.84
2017-10-19T07:52:18.977Z,1003.91
2017-10-19T07:53:18.952Z,1003.87
2017-10-19T07:54:18.924Z,1003.86
2017-10-19T07:55:18.896Z,1003.96
2017-10-19T07:56:18.870Z,1004.00
2017-10-19T07:57:18.843Z,1004.02
2017-10-19T07:58:18.817Z,1004.05
2017-10-19T07:59:18.790Z,1004.03
2017-10-19T08:00:18.762Z,1004.07
2017-10-19T08:01:18.736Z,1004.00
2017-10-19T08:02:18.711Z,1004.09
2017-10-19T08:03:18.683Z,1004.02
2017-10-19T08:04:18.655Z,1003.99
2017-10-19T08:05:18.632Z,1004.01
2017-10-19T08:06:18.604Z,1003.99
2017-10-19T08:07:18.580Z,1004.05
2017-10-19T08:08:18.552Z,1004.03
2017-10-19T08:09:18.526Z,1003.98
2017-10-19T08:10:18.501Z,1004.02
2017-10-19T08:11:18.475Z,1004.01
2017-10-19T08:12:18.450Z,1004.03
2017-10-19T08:13:18.425Z,1004.02
2017-10-19T08:14:18.400Z,1004.01
2017-10-19T08:15:18.376Z,1004.07
2017-10-19T08:16:18.350Z,1004.07
2017-10-19T08:17:18.324Z,1004.09
2017-10-19T08:18:18.301Z,1004.08
2017-10-19T08:19:18.275Z,1004.15
2017-10-19T08:20:18.252Z,1004.11
2017-10-19T08:21:18.227Z,1004.10
2017-10-19T08:22:18.203Z,1004.08
2017-10-19T08:23:18.178Z,1004.16
2017-10-19T08:24:18.154Z,1004.09
2017-10-19T08:25:18.130Z,1004.12
2017-10-19T08:26:18.108Z,1004.16
2017-10-19T08:27:18.085Z,1004.16
2017-10-19T08:28:18.073Z,1004.18
2017-10-19T08:29:18.037Z,1004.23
2017-10-19T08:30:18.015Z,1004.17
2017-10-19T08:31:17.990Z,1004.15
2017-10-19T08:32:17.963Z,1004.21
2017-10-19T08:33:17.948Z,1004.19
2017-10-19T08:34:17.921Z,1004.15
2017-10-19T08:35:17.897Z,1004.07
2017-10-19T08:36:17.876Z,1004.09
2017-10-19T08:37:17.853Z,1004.11
2017-10-19T08:38:17.831Z,1004.06
2017-10-19T08:39:17.807Z,1004.04
2017-10-19T08:40:17.785Z,1004.01
2017-10-19T08:41:17.766Z,1004.02
2017-10-19T08:42:17.741Z,1004.00
2017-10-19T08:43:17.719Z,1004.04
2017-10-19T08:44:17.697Z,1004.02
2017-10-19T08:45:17.674Z,1003.98
2017-10-19T08:46:17.653Z,1004.08
2017-10-19T08:47:17.631Z,1004.06
2017-10-19T08:48:17.612Z,1004.05
2017-10-19T08:49:17.585Z,1004.08
2017-10-19T08:50:17.566Z,1004.07
2017-10-19T08:51:17.545Z,1004.06
2017-10-19T08:52:17.522Z,1004.06
2017-10-19T08:53:17.500Z,1004.08
2017-10-19T08:54:17.481Z,1004.06
2017-10-19T08:55:17.458Z,1004.10
2017-10-19T08:56:17.445Z,1004.03
2017-10-19T08:57:17.416Z,1004.06
2017-10-19T08:58:17.393Z,1004.09
2017-10-19T08:59:17.372Z,1003.95
2017-10-19T09:00:17.348Z,1003.91
2017-10-19T09:01:17.330Z,1003.92
2017-10-19T09:02:17.310Z,1003.94
2017-10-19T09:03:17.288Z,1003.98
2017-10-19T09:04:17.266Z,1003.98
2017-10-19T09:05:17.244Z,1003.96
2017-10-19T09:06:17.224Z,1003.95
2017-10-19T09:07:17.202Z,1004.02
2017-10-19T09:08:17.181Z,1004.02
2017-10-19T09:09:17.160Z,1003.99
2017-10-19T09:10:17.140Z,1003.99
2017-10-19T09:11:17.116Z,1004.07
2017-10-19T09:12:17.094Z,1004.07
2017-10-19T09:13:17.073Z,1004.02
2017-10-19T09:14:17.052Z,1004.06
2017-10-19T09:15:17.030Z,1004.05
2017-10-19T09:16:17.008Z,1004.26
2017-10-19T09:17:16.987Z,1004.41
2017-10-19T09:18:16.971Z,1004.44
2017-10-19T09:19:16.946Z,1004.61
2017-10-19T09:20:16.922Z,1004.61
2017-10-19T09:21:16.900Z,1004.52
2017-10-19T09:22:16.880Z,1004.47
2017-10-19T09:23:16.859Z,1004.45
2017-10-19T09:24:16.835Z,1004.53
2017-10-19T09:25:16.814Z,1004.48
2017-10-19T09:26:16.794Z,1004.37
2017-10-19T09:27:16.776Z,1004.40
2017-10-19T09:28:16.749Z,1004.41
2017-10-19T09:29:16.728Z,1004.46
2017-10-19T09:30:16.707Z,1004.46
2017-10-19T09:31:16.685Z,1004.37
2017-10-19T09:32:16.662Z,1004.28
2017-10-19T09:33:16.640Z,1004.23
2017-10-19T09:34:16.623Z,1004.18
2017-10-19T09:35:16.602Z,1004.29
2017-10-19T09:36:16.579Z,1004.33
2017-10-19T09:37:16.559Z,1004.32
2017-10-19T09:38:16.537Z,1004.24
2017-10-19T09:39:16.516Z,1004.25
2017-10-19T09:40:16.495Z,1004.18
2017-10-19T09:41:16.487Z,1004.17
2017-10-19T09:42:16.451Z,1004.10
2017-10-19T09:43:16.439Z,1004.02
2017-10-19T09:44:16.412Z,1004.10
2017-10-19T09:45:16.388Z,1004.30
2017-10-19T09:46:16.362Z,1004.45
2017-10-19T09:47:16.352Z,1004.70
2017-10-19T09:48:16.326Z,1004.68
2017-10-19T09:49:16.303Z,1004.43
2017-10-19T09:50:16.285Z,1004.13
2017-10-19T09:51:16.260Z,1004.18
2017-10-19T09:52:16.239Z,1004.23
2017-10-19T09:53:16.220Z,1004.50
2017-10-19T09:54:16.198Z,1004.70
2017-10-19T09:55:16.176Z,1004.77
2017-10-19T09:56:16.156Z,1004.75
2017-10-19T09:57:16.136Z,1004.74
2017-10-19T09:58:16.114Z,1004.75
2017-10-19T09:59:16.095Z,1004.60
2017-10-19T10:00:16.072Z,1004.67
2017-10-19T10:01:16.050Z,1004.81
2017-10-19T10:02:16.034Z,1004.75
2017-10-19T10:03:16.013Z,1004.66
2017-10-19T10:04:15.990Z,1004.72
2017-10-19T10:05:15.969Z,1004.64
2017-10-19T10:06:15.949Z,1004.71
2017-10-19T10:07:15.929Z,1004.64
2017-10-19T10:08:15.902Z,1004.63
2017-10-19T10:09:15.887Z,1004.45
2017-10-19T10:10:15.866Z,1004.34
2017-10-19T10:11:15.848Z,1004.38
2017-10-19T10:12:15.825Z,1004.29
2017-10-19T10:13:15.879Z,1004.29
2017-10-19T10:14:15.794Z,1004.23
2017-10-19T10:15:15.765Z,1004.18
2017-10-19T10:16:15.745Z,1004.13
2017-10-19T10:17:15.731Z,1004.05
2017-10-19T10:18:15.704Z,1004.01
2017-10-19T10:19:15.683Z,1004.07
2017-10-19T10:20:15.665Z,1004.06
2017-10-19T10:21:15.642Z,1004.01
2017-10-19T10:22:15.920Z,1004.00
2017-10-19T10:23:15.599Z,1003.99
2017-10-19T10:24:15.582Z,1004.07
2017-10-19T10:25:15.561Z,1003.90
2017-10-19T10:26:15.540Z,1004.13
2017-10-19T10:27:15.520Z,1003.85
2017-10-19T10:28:15.500Z,1003.81
2017-10-19T10:29:15.480Z,1003.86
2017-10-19T10:30:15.460Z,1003.79
2017-10-19T10:31:15.441Z,1004.02
2017-10-19T10:32:15.419Z,1003.71
2017-10-19T10:33:15.401Z,1003.64
2017-10-19T10:34:15.379Z,1003.53
2017-10-19T10:35:15.361Z,1003.49
2017-10-19T10:36:15.338Z,1003.42
2017-10-19T10:37:15.320Z,1003.50
2017-10-19T10:38:15.297Z,1003.51
2017-10-19T10:39:15.278Z,1003.48
2017-10-19T10:40:15.259Z,1003.52
2017-10-19T10:41:15.242Z,1003.47
2017-10-19T10:42:15.219Z,1003.47
2017-10-19T10:43:15.199Z,1003.44
2017-10-19T10:44:15.203Z,1003.45
2017-10-19T10:45:15.157Z,1003.39
2017-10-19T10:46:15.138Z,1003.41
2017-10-19T10:47:15.119Z,1003.45
2017-10-19T10:48:15.097Z,1003.34
2017-10-19T10:49:15.493Z,1003.19
2017-10-19T10:50:15.058Z,1003.15
2017-10-19T10:51:15.492Z,1003.28
2017-10-19T10:52:15.040Z,1003.39
2017-10-19T10:53:14.998Z,1003.37
2017-10-19T10:54:14.984Z,1003.30
2017-10-19T10:55:14.958Z,1003.25
2017-10-19T10:56:14.938Z,1003.24
2017-10-19T10:57:14.918Z,1003.27
2017-10-19T10:58:14.897Z,1003.29
2017-10-19T10:59:14.878Z,1003.37
2017-10-19T11:00:14.856Z,1003.36
2017-10-19T11:01:14.838Z,1003.26
2017-10-19T11:02:14.827Z,1003.14
2017-10-19T11:03:14.793Z,1003.04
2017-10-19T11:04:14.770Z,1003.11
2017-10-19T11:05:14.753Z,1003.06
2017-10-19T11:06:14.818Z,1002.93
2017-10-19T11:07:14.819Z,1002.90
2017-10-19T11:08:14.690Z,1002.98
2017-10-19T11:09:14.669Z,1002.97
2017-10-19T11:10:14.648Z,1003.04
2017-10-19T11:11:14.812Z,1003.01
2017-10-19T11:12:14.607Z,1003.01
2017-10-19T11:13:14.584Z,1002.89
2017-10-19T11:14:14.565Z,1002.91
2017-10-19T11:15:14.545Z,1002.89
2017-10-19T11:16:14.522Z,1002.94
2017-10-19T11:17:14.505Z,1002.98
2017-10-19T11:18:14.482Z,1002.99
2017-10-19T11:19:14.466Z,1002.86
2017-10-19T11:20:14.440Z,1002.83
2017-10-19T11:21:14.418Z,1002.86
2017-10-19T11:22:14.398Z,1002.92
2017-10-19T11:23:14.894Z,1002.93
2017-10-19T11:24:14.355Z,1002.95
2017-10-19T11:25:14.334Z,1002.91
2017-10-19T11:26:14.316Z,1002.84
2017-10-19T11:27:14.296Z,1002.82
2017-10-19T11:28:14.275Z,1002.73
2017-10-19T11:29:14.254Z,1002.80
2017-10-19T11:30:14.234Z,1002.70
2017-10-19T11:31:14.215Z,1002.75
2017-10-19T11:32:14.193Z,1002.65
2017-10-19T11:33:14.173Z,1002.67
2017-10-19T11:34:14.152Z,1002.64
2017-10-19T11:35:14.131Z,1002.61
2017-10-19T11:36:14.111Z,1002.60
2017-10-19T11:37:14.091Z,1002.61
2017-10-19T11:38:14.068Z,1002.54
2017-10-19T11:39:14.050Z,1002.56
2017-10-19T11:40:14.030Z,1002.41
2017-10-19T11:41:14.009Z,1002.39
2017-10-19T11:42:13.987Z,1002.41
2017-10-19T11:43:13.966Z,1002.41
2017-10-19T11:44:13.946Z,1002.47
2017-10-19T11:45:13.925Z,1002.26
2017-10-19T11:46:13.905Z,1002.31
2017-10-19T11:47:13.885Z,1002.36
2017-10-19T11:48:13.862Z,1002.30
2017-10-19T11:49:13.840Z,1002.27
2017-10-19T11:50:13.823Z,1002.24
2017-10-19T11:51:13.798Z,1002.23
2017-10-19T11:52:13.777Z,1002.25
2017-10-19T11:53:13.755Z,1002.25
2017-10-19T11:54:13.733Z,1002.23
2017-10-19T11:55:13.713Z,1002.21
2017-10-19T11:56:13.689Z,1002.18
2017-10-19T11:57:13.675Z,1002.15
2017-10-19T11:58:13.650Z,1002.22
2017-10-19T11:59:13.625Z,1002.17
2017-10-19T12:00:13.603Z,1002.15
2017-10-19T12:01:13.582Z,1002.08
2017-10-19T12:02:13.787Z,1002.02
2017-10-19T12:03:13.539Z,1002.06
2017-10-19T12:04:13.517Z,1002.00
2017-10-19T12:05:13.496Z,1001.97